LGRX/GPA METAR and TAF weather

Enter ICAO airport designator
Station Type Date Time Source
LGRX METAR 2021/09/16 11:50 UTC NOAA

LGRX 161150Z 28004KT CAVOK 29/18 Q1017


Station Type Date Time Source
LGRX Decoded METAR 2021/09/16 11:50 UTC NOAA

Araxos Airport , Greece (LGRX) 38-09N 021-25E 12M
Sep 16, 2021 - 07:50 AM EDT / 2021.09.16 1150 UTC
Wind: from the W (280 degrees) at 5 MPH (4 KT):0
Visibility: greater than 7 mile(s):0
Temperature: 84 F (29 C)
Dew Point: 64 F (18 C)
Relative Humidity: 51%
Pressure (altimeter): 30.03 in. Hg (1017 hPa)
ob: LGRX 161150Z 28004KT CAVOK 29/18 Q1017
cycle: 12

Station Type Date Time Source
LGRX TAF 2020/03/18 09:39 UTC NOAA

TAF LGRX 180800Z 1809/1821 33006KT 9999 FEW030
BECMG 1816/1818 07010KT

Example: see airport list